Time;durP1;ratioP1;P1;durP2;ratioP2;P2;SDS_P1;SDS_P2;PMS_P1;PMS_P2;Temp;Humidity;BMP_temperature;BMP_pressure;BME280_temperature;BME280_humidity;BME280_pressure;Samples;Min_cycle;Max_cycle;Signal;HPM_P1;HPM_P2
2021/01/26 00:01:05;;;;;;;19.17;10.27;;;8.50;87.20;;;;;;4939542;29;20103;-80
2021/01/26 00:03:31;;;;;;;18.10;10.30;;;8.50;87.00;;;;;;4937884;29;20063;-80
2021/01/26 00:05:57;;;;;;;15.65;10.05;;;8.60;87.00;;;;;;4938878;29;20043;-80
2021/01/26 00:08:23;;;;;;;16.73;9.40;;;8.70;86.90;;;;;;4939296;29;20598;-80
2021/01/26 00:10:49;;;;;;;23.55;11.60;;;8.70;86.60;;;;;;4939986;29;20462;-80
2021/01/26 00:13:16;;;;;;;19.17;10.82;;;8.80;86.60;;;;;;4938119;29;20500;-79
2021/01/26 00:15:42;;;;;;;17.83;10.20;;;8.80;86.50;;;;;;4939775;29;20020;-80
2021/01/26 00:18:08;;;;;;;20.55;10.45;;;8.80;86.50;;;;;;4939446;29;20381;-80
2021/01/26 00:20:34;;;;;;;31.77;12.43;;;8.90;86.70;;;;;;4939521;29;20110;-80
2021/01/26 00:23:00;;;;;;;36.75;14.57;;;8.90;86.50;;;;;;4939417;29;20027;-80
2021/01/26 00:25:30;;;;;;;44.05;16.10;;;9.00;86.60;;;;;;4938608;29;20183;-79
2021/01/26 00:27:56;;;;;;;37.15;14.02;;;9.00;86.40;;;;;;4938373;29;20039;-79
2021/01/26 00:30:25;;;;;;;38.63;14.25;;;9.10;86.20;;;;;;4939040;29;20031;-79
2021/01/26 00:32:51;;;;;;;32.65;11.95;;;9.10;86.00;;;;;;4938716;29;20040;-79
2021/01/26 00:35:18;;;;;;;4.47;3.88;;;9.10;85.70;;;;;;4938946;29;20038;-79
2021/01/26 00:37:45;;;;;;;5.25;3.85;;;9.10;85.10;;;;;;4938390;29;20118;-79
2021/01/26 00:40:11;;;;;;;6.35;4.50;;;9.10;84.30;;;;;;4938195;29;20034;-79
2021/01/26 00:42:37;;;;;;;4.70;3.75;;;8.90;83.20;;;;;;4938067;29;20031;-79
2021/01/26 00:45:05;;;;;;;4.05;3.63;;;8.80;82.50;;;;;;4938842;29;20020;-79
2021/01/26 00:47:31;;;;;;;4.47;3.80;;;8.70;82.00;;;;;;4938240;29;20483;-78
2021/01/26 00:49:57;;;;;;;4.18;3.50;;;8.50;81.90;;;;;;4938231;29;20083;-79
2021/01/26 00:52:23;;;;;;;4.20;3.80;;;8.30;81.70;;;;;;4936583;29;20036;-79
2021/01/26 00:54:49;;;;;;;4.97;3.72;;;8.20;81.70;;;;;;4937662;29;20034;-78
2021/01/26 00:57:19;;;;;;;3.90;3.53;;;8.00;81.70;;;;;;4938140;29;20032;-79
2021/01/26 00:59:47;;;;;;;4.30;3.90;;;7.90;81.90;;;;;;4937911;29;20028;-79
2021/01/26 01:02:13;;;;;;;4.40;3.95;;;7.80;82.00;;;;;;4938090;29;20118;-79
2021/01/26 01:04:39;;;;;;;5.10;4.20;;;7.70;82.20;;;;;;4937767;29;20036;-78
2021/01/26 01:07:05;;;;;;;5.35;4.45;;;7.60;81.90;;;;;;4928394;29;20484;-79
2021/01/26 01:09:31;;;;;;;5.43;4.18;;;7.40;81.60;;;;;;4927606;29;20023;-80
2021/01/26 01:11:56;;;;;;;5.53;4.15;;;7.30;81.30;;;;;;4927702;29;20040;-79
2021/01/26 01:14:23;;;;;;;4.65;3.97;;;7.20;81.40;;;;;;4926387;29;20114;-79
2021/01/26 01:16:49;;;;;;;5.43;4.72;;;7.10;81.10;;;;;;4925425;29;20028;-79
2021/01/26 01:19:15;;;;;;;5.35;4.47;;;7.00;81.00;;;;;;4927245;29;20032;-78
2021/01/26 01:21:40;;;;;;;4.47;3.90;;;6.80;80.80;;;;;;4927754;29;20032;-79
2021/01/26 01:24:07;;;;;;;4.95;4.40;;;6.70;80.60;;;;;;4928304;29;20067;-79
2021/01/26 01:26:33;;;;;;;5.72;4.43;;;6.60;80.40;;;;;;4932413;29;20036;-78
2021/01/26 01:28:59;;;;;;;4.68;3.95;;;6.50;80.20;;;;;;4937260;29;20474;-78
2021/01/26 01:31:25;;;;;;;4.72;4.30;;;6.40;80.00;;;;;;4938045;29;20043;-78
2021/01/26 01:33:50;;;;;;;3.53;3.22;;;6.30;79.90;;;;;;4936968;29;20401;-78
2021/01/26 01:36:17;;;;;;;4.95;3.92;;;6.20;79.40;;;;;;4937568;29;20027;-78
2021/01/26 01:38:43;;;;;;;4.35;3.45;;;6.00;79.40;;;;;;4936787;29;20545;-78
2021/01/26 01:41:09;;;;;;;4.68;3.75;;;6.00;79.10;;;;;;4937347;29;20059;-78
2021/01/26 01:43:35;;;;;;;5.60;3.42;;;5.90;79.30;;;;;;4937376;29;20035;-78
2021/01/26 01:46:01;;;;;;;4.03;3.17;;;5.80;79.60;;;;;;4937044;29;20027;-78
2021/01/26 01:48:33;;;;;;;3.85;3.45;;;5.70;79.00;;;;;;4937008;29;20038;-78
2021/01/26 01:51:15;;;;;;;2.92;2.63;;;5.60;79.20;;;;;;4936792;29;20047;-78
2021/01/26 01:54:10;;;;;;;5.97;3.35;;;5.60;78.90;;;;;;4936822;29;20384;-78
2021/01/26 01:56:42;;;;;;;4.35;3.20;;;5.50;79.20;;;;;;4912268;29;20394;-78
2021/01/26 01:59:19;;;;;;;2.75;2.55;;;5.50;78.60;;;;;;4936764;29;20028;-79
2021/01/26 02:01:47;;;;;;;5.05;3.10;;;5.40;78.50;;;;;;4936858;29;20163;-78
2021/01/26 02:04:17;;;;;;;4.38;2.95;;;5.40;78.60;;;;;;4937168;29;20046;-79
2021/01/26 02:06:44;;;;;;;3.67;2.85;;;5.30;78.50;;;;;;4937164;29;20032;-79
2021/01/26 02:09:24;;;;;;;4.20;3.13;;;5.30;78.50;;;;;;4936787;29;20023;-78
2021/01/26 02:11:50;;;;;;;2.63;2.42;;;5.20;78.10;;;;;;4936872;29;20068;-79
2021/01/26 02:14:16;;;;;;;3.08;2.70;;;5.20;77.80;;;;;;4937327;29;20032;-79
2021/01/26 02:17:06;;;;;;;3.38;2.85;;;5.00;77.70;;;;;;4936692;29;20027;-79
2021/01/26 02:19:58;;;;;;;3.25;2.95;;;4.90;77.90;;;;;;4937221;29;20028;-80
2021/01/26 02:23:00;;;;;;;5.07;3.30;;;4.70;78.40;;;;;;4937196;29;20051;-80
2021/01/26 02:25:29;;;;;;;3.08;2.78;;;4.60;79.00;;;;;;4937130;29;20063;-80
2021/01/26 02:28:06;;;;;;;4.10;2.80;;;4.50;79.60;;;;;;4936125;29;20034;-81
2021/01/26 02:30:48;;;;;;;3.28;2.60;;;4.40;80.20;;;;;;4936916;29;20027;-81
2021/01/26 02:33:44;;;;;;;4.50;3.35;;;4.30;80.80;;;;;;4937206;29;20115;-80
2021/01/26 02:36:28;;;;;;;5.70;4.05;;;4.20;81.30;;;;;;4936819;29;20028;-80
2021/01/26 02:39:31;;;;;;;7.25;3.88;;;4.10;81.90;;;;;;4936895;29;20031;-80
2021/01/26 02:42:32;;;;;;;7.00;3.63;;;4.00;82.40;;;;;;4936786;29;20028;-80
2021/01/26 02:45:28;;;;;;;4.65;3.20;;;3.90;82.70;;;;;;4910234;29;20419;-80
2021/01/26 02:48:03;;;;;;;6.25;3.75;;;3.90;83.20;;;;;;4927129;29;20108;-80
2021/01/26 02:50:50;;;;;;;6.00;3.70;;;3.80;83.50;;;;;;4925644;29;20048;-81
2021/01/26 02:53:49;;;;;;;5.60;3.65;;;3.70;84.00;;;;;;4925008;29;20047;-79
2021/01/26 02:56:42;;;;;;;5.28;3.25;;;3.70;84.50;;;;;;4949683;29;20050;-80
2021/01/26 02:59:51;;;;;;;7.53;4.60;;;3.70;85.10;;;;;;4926524;29;20035;-80
2021/01/26 03:02:35;;;;;;;7.47;4.20;;;3.60;85.70;;;;;;4888138;29;20081;-82
2021/01/26 03:05:07;;;;;;;6.57;4.25;;;3.60;86.60;;;;;;4924611;29;20055;-84
2021/01/26 03:07:36;;;;;;;9.15;4.95;;;3.60;87.20;;;;;;4924752;29;20051;-82
2021/01/26 03:10:10;;;;;;;7.50;4.15;;;3.60;87.80;;;;;;4924183;29;20032;-83
2021/01/26 03:12:39;;;;;;;9.45;4.80;;;3.60;88.10;;;;;;4926673;29;20114;-83
2021/01/26 03:15:16;;;;;;;8.20;4.97;;;3.60;88.50;;;;;;4925660;29;20027;-83
2021/01/26 03:17:45;;;;;;;7.40;4.90;;;3.60;88.60;;;;;;4925738;29;20025;-84
2021/01/26 03:20:16;;;;;;;7.82;4.72;;;3.70;88.80;;;;;;4924701;29;20035;-84
2021/01/26 03:22:47;;;;;;;8.15;4.80;;;3.70;88.70;;;;;;4925236;29;20079;-84
2021/01/26 03:25:14;;;;;;;11.02;5.55;;;3.70;88.80;;;;;;4924417;29;20032;-84
2021/01/26 03:27:43;;;;;;;8.68;5.35;;;3.70;89.00;;;;;;4927295;29;20123;-84
2021/01/26 03:30:17;;;;;;;7.93;5.32;;;3.80;89.30;;;;;;4924977;29;20104;-83
2021/01/26 03:32:47;;;;;;;9.95;6.10;;;3.80;89.30;;;;;;4924960;29;20095;-83
2021/01/26 03:35:15;;;;;;;8.43;5.25;;;3.80;89.20;;;;;;4927164;29;20039;-83
2021/01/26 03:37:47;;;;;;;7.72;5.47;;;3.90;89.10;;;;;;4928547;29;20114;-84
2021/01/26 03:40:12;;;;;;;7.65;5.20;;;3.90;89.10;;;;;;4929653;29;20435;-83
2021/01/26 03:42:38;;;;;;;10.18;6.13;;;3.90;89.20;;;;;;4928350;29;20028;-82
2021/01/26 03:45:06;;;;;;;9.32;5.45;;;3.90;89.70;;;;;;4928950;29;20038;-82
2021/01/26 03:47:43;;;;;;;13.68;7.25;;;3.90;89.10;;;;;;4930297;29;20048;-82
2021/01/26 03:50:31;;;;;;;11.65;6.72;;;4.00;89.00;;;;;;4929440;29;20514;-82
2021/01/26 03:52:57;;;;;;;14.02;7.18;;;4.00;88.70;;;;;;4929867;29;20499;-82
2021/01/26 03:55:56;;;;;;;11.90;6.25;;;4.00;88.90;;;;;;4927351;29;20266;-82
2021/01/26 03:58:30;;;;;;;13.90;7.43;;;4.00;88.60;;;;;;4913687;29;20110;-82
2021/01/26 04:01:27;;;;;;;10.38;6.35;;;4.00;88.50;;;;;;4929176;29;20035;-81
2021/01/26 04:04:23;;;;;;;14.82;7.45;;;4.00;88.40;;;;;;4929521;29;20067;-82
2021/01/26 04:06:53;;;;;;;14.50;8.18;;;4.10;88.70;;;;;;4926501;29;20402;-81
2021/01/26 04:09:26;;;;;;;15.32;7.00;;;4.10;88.90;;;;;;4928949;29;20016;-82
2021/01/26 04:12:02;;;;;;;15.10;7.35;;;4.00;88.70;;;;;;4921505;29;20035;-82
2021/01/26 04:14:32;;;;;;;12.30;6.93;;;4.10;88.50;;;;;;4920285;29;20103;-81
2021/01/26 04:17:07;;;;;;;12.65;6.63;;;4.10;88.20;;;;;;4919052;29;20031;-81
2021/01/26 04:19:38;;;;;;;12.88;6.65;;;4.10;88.10;;;;;;4919444;29;20054;-81
2021/01/26 04:22:08;;;;;;;16.25;7.10;;;4.10;87.90;;;;;;4919097;29;20060;-82
2021/01/26 04:24:35;;;;;;;14.00;6.75;;;4.10;87.70;;;;;;4919436;29;20505;-81
2021/01/26 04:27:05;;;;;;;19.10;8.43;;;4.10;87.60;;;;;;4919890;29;20035;-81
2021/01/26 04:29:31;;;;;;;14.63;8.02;;;4.10;87.40;;;;;;4919457;29;20038;-81
2021/01/26 04:31:56;;;;;;;14.75;7.47;;;4.10;87.40;;;;;;4919541;29;20079;-81
2021/01/26 04:34:23;;;;;;;18.20;8.82;;;4.10;87.10;;;;;;4919556;29;20032;-81
2021/01/26 04:36:48;;;;;;;19.52;9.45;;;4.10;87.30;;;;;;4919155;29;20032;-81
2021/01/26 04:39:14;;;;;;;17.02;8.43;;;4.10;87.50;;;;;;4919247;29;20020;-81
2021/01/26 04:42:01;;;;;;;17.98;9.07;;;4.10;87.30;;;;;;4919399;29;20039;-81
2021/01/26 04:44:48;;;;;;;16.00;8.25;;;4.20;87.10;;;;;;4919064;29;20084;-81
2021/01/26 04:47:31;;;;;;;15.15;7.95;;;4.20;86.80;;;;;;4918912;29;20056;-81
2021/01/26 04:50:17;;;;;;;15.73;8.10;;;4.20;86.80;;;;;;4919172;29;20086;-81
2021/01/26 04:53:02;;;;;;;14.15;8.00;;;4.20;86.80;;;;;;4927791;29;20089;-81
2021/01/26 04:55:39;;;;;;;15.57;7.80;;;4.20;86.90;;;;;;4929113;29;20159;-81
2021/01/26 04:58:26;;;;;;;15.55;8.02;;;4.20;86.90;;;;;;4926191;29;20263;-81
2021/01/26 05:00:54;;;;;;;14.32;7.32;;;4.20;86.90;;;;;;4927414;29;20470;-81
2021/01/26 05:03:29;;;;;;;13.32;7.07;;;4.20;86.50;;;;;;4927028;29;20110;-81
2021/01/26 05:06:01;;;;;;;16.92;7.85;;;4.20;86.70;;;;;;4927986;29;20106;-82
2021/01/26 05:08:41;;;;;;;14.15;7.40;;;4.20;86.40;;;;;;4928689;29;20027;-86
2021/01/26 05:11:23;;;;;;;12.55;7.47;;;4.20;86.40;;;;;;4928306;29;20042;-81
2021/01/26 05:14:19;;;;;;;13.05;6.55;;;4.20;86.40;;;;;;4925989;29;20024;-82
2021/01/26 05:17:09;;;;;;;13.00;7.05;;;4.30;86.60;;;;;;4927600;29;20043;-82
2021/01/26 05:20:06;;;;;;;14.07;7.53;;;4.20;86.20;;;;;;4926964;29;20024;-80
2021/01/26 05:22:51;;;;;;;12.73;7.07;;;4.30;85.80;;;;;;4927586;29;20088;-81
2021/01/26 05:25:19;;;;;;;;;;;4.30;85.80;;;;;;4927749;29;20027;-82
2021/01/26 05:27:45;;;;;;;10.98;5.68;;;4.30;86.20;;;;;;4925991;29;20341;-85
2021/01/26 05:30:18;;;;;;;10.05;5.40;;;4.30;86.00;;;;;;4926268;29;20028;-81
2021/01/26 05:32:46;;;;;;;11.00;5.57;;;4.30;85.60;;;;;;4927467;29;20078;-84
2021/01/26 05:35:16;;;;;;;13.57;5.25;;;4.30;85.50;;;;;;4925795;29;20024;-82
2021/01/26 05:37:42;;;;;;;11.73;5.97;;;4.30;85.10;;;;;;4926266;29;20019;-82
2021/01/26 05:40:28;;;;;;;8.85;5.22;;;4.20;85.20;;;;;;4927258;29;20362;-81
2021/01/26 05:42:58;;;;;;;7.97;4.88;;;4.30;85.30;;;;;;4926061;29;20028;-83
2021/01/26 05:45:32;;;;;;;8.07;4.75;;;4.30;84.30;;;;;;4925924;29;20470;-82
2021/01/26 05:48:01;;;;;;;;;;;4.30;84.20;;;;;;4926624;29;20542;-82
2021/01/26 05:50:29;;;;;;;12.25;5.93;;;4.30;84.60;;;;;;4925421;29;20333;-80
2021/01/26 05:53:04;;;;;;;8.68;5.38;;;4.30;84.40;;;;;;4925692;29;20032;-81
2021/01/26 05:55:32;;;;;;;14.75;6.20;;;4.30;84.40;;;;;;4927614;29;20035;-80
2021/01/26 05:58:14;;;;;;;9.52;5.57;;;4.30;84.90;;;;;;4924866;29;20450;-81
2021/01/26 06:00:41;;;;;;;10.32;5.78;;;4.20;84.70;;;;;;4926106;29;20017;-81
2021/01/26 06:03:09;;;;;;;8.95;5.57;;;4.30;84.70;;;;;;4924372;29;20032;-81
2021/01/26 06:05:35;;;;;;;9.88;5.30;;;4.30;84.30;;;;;;4926127;29;20335;-81
2021/01/26 06:08:12;;;;;;;10.93;5.35;;;4.30;84.40;;;;;;4926297;29;20032;-81
2021/01/26 06:10:44;;;;;;;10.05;5.60;;;4.30;84.10;;;;;;4927075;29;20385;-81
2021/01/26 06:13:10;;;;;;;9.35;4.95;;;4.30;84.30;;;;;;4933405;29;20039;-80
2021/01/26 06:15:39;;;;;;;13.68;5.22;;;4.30;84.30;;;;;;4935898;29;20028;-81
2021/01/26 06:18:13;;;;;;;10.48;5.45;;;4.40;83.90;;;;;;4923916;29;20100;-80
2021/01/26 06:20:39;;;;;;;8.23;5.25;;;4.40;83.90;;;;;;4917296;29;20032;-80
2021/01/26 06:23:31;;;;;;;10.93;5.38;;;4.40;83.50;;;;;;4917236;29;20028;-80
2021/01/26 06:26:04;;;;;;;11.18;6.15;;;4.40;83.80;;;;;;4914184;29;20115;-81
2021/01/26 06:28:38;;;;;;;11.93;5.82;;;4.40;83.80;;;;;;4917088;29;20096;-80
2021/01/26 06:31:18;;;;;;;11.70;6.78;;;4.50;84.30;;;;;;4917001;29;20471;-80
2021/01/26 06:33:59;;;;;;;11.30;6.47;;;4.50;84.50;;;;;;4917116;29;20048;-82
2021/01/26 06:36:54;;;;;;;12.25;6.70;;;4.50;84.00;;;;;;4921524;29;20051;-80
2021/01/26 06:39:38;;;;;;;14.00;6.93;;;4.50;84.20;;;;;;4902363;29;20159;-81
2021/01/26 06:42:06;;;;;;;11.93;6.93;;;4.50;84.20;;;;;;4924643;29;20192;-81
2021/01/26 06:45:06;;;;;;;15.48;7.85;;;4.50;84.30;;;;;;4936071;29;20111;-81
2021/01/26 06:47:53;;;;;;;14.60;9.02;;;4.50;84.10;;;;;;4935839;29;20394;-81
2021/01/26 06:50:49;;;;;;;15.40;8.63;;;4.50;84.40;;;;;;4935770;29;20071;-82
2021/01/26 06:53:52;;;;;;;12.10;7.25;;;4.60;84.30;;;;;;4935708;29;20036;-79
2021/01/26 06:56:30;;;;;;;15.32;7.40;;;4.50;84.40;;;;;;4935861;29;20031;-80
2021/01/26 06:59:11;;;;;;;14.13;8.05;;;4.50;84.20;;;;;;4935834;29;20366;-81
2021/01/26 07:01:57;;;;;;;16.17;7.82;;;4.60;84.60;;;;;;4935854;29;20028;-80
2021/01/26 07:04:44;;;;;;;18.50;9.18;;;4.50;84.40;;;;;;4935963;29;20028;-80
2021/01/26 07:07:44;;;;;;;16.05;8.38;;;4.50;84.40;;;;;;4935439;29;20032;-80
2021/01/26 07:10:39;;;;;;;17.27;8.40;;;4.50;84.40;;;;;;4916750;29;20028;-79
2021/01/26 07:13:26;;;;;;;21.88;9.85;;;4.50;84.10;;;;;;4897764;29;20041;-81
2021/01/26 07:16:26;;;;;;;17.70;9.57;;;4.50;84.50;;;;;;4920201;29;20032;-80
2021/01/26 07:19:29;;;;;;;18.88;9.45;;;4.50;84.40;;;;;;4925347;29;20123;-80
2021/01/26 07:22:19;;;;;;;18.00;9.60;;;4.50;84.30;;;;;;4921402;29;20449;-80
2021/01/26 07:25:12;;;;;;;15.65;8.55;;;4.50;84.80;;;;;;4929209;29;20102;-79
2021/01/26 07:27:50;;;;;;;16.20;8.75;;;4.50;84.30;;;;;;4929488;29;20029;-81
2021/01/26 07:30:25;;;;;;;16.83;8.88;;;4.50;84.50;;;;;;4929179;29;20036;-79
2021/01/26 07:33:18;;;;;;;14.85;8.73;;;4.50;84.60;;;;;;4926942;29;20036;-80
2021/01/26 07:36:00;;;;;;;13.13;7.15;;;4.50;84.60;;;;;;4921649;29;20040;-81
2021/01/26 07:38:40;;;;;;;16.45;8.80;;;4.50;84.60;;;;;;4927430;29;20016;-81
2021/01/26 07:41:08;;;;;;;14.40;8.15;;;4.50;84.60;;;;;;4923986;29;20024;-80
2021/01/26 07:44:04;;;;;;;12.75;7.97;;;4.50;84.70;;;;;;4919409;29;20047;-80
2021/01/26 07:46:51;;;;;;;12.60;7.63;;;4.50;84.80;;;;;;4918492;29;20056;-80
2021/01/26 07:49:24;;;;;;;12.45;7.57;;;4.50;84.30;;;;;;4919847;29;20052;-80
2021/01/26 07:51:55;;;;;;;17.58;8.05;;;4.50;84.40;;;;;;4918684;29;20040;-81
2021/01/26 07:54:48;;;;;;;14.85;8.18;;;4.50;84.40;;;;;;4918516;29;20035;-79
2021/01/26 07:57:16;;;;;;;16.42;8.32;;;4.60;84.30;;;;;;4918263;29;20084;-82
2021/01/26 07:59:51;;;;;;;11.80;7.32;;;4.60;84.50;;;;;;4920030;29;20028;-80
2021/01/26 08:02:31;;;;;;;18.17;8.65;;;4.60;84.30;;;;;;4920166;29;20091;-79
2021/01/26 08:04:57;;;;;;;15.10;7.85;;;4.60;83.50;;;;;;4903028;29;20024;-80
2021/01/26 08:07:30;;;;;;;14.68;8.15;;;4.60;83.40;;;;;;4934351;29;20032;-81
2021/01/26 08:09:58;;;;;;;12.02;6.93;;;4.60;83.20;;;;;;4919521;29;20032;-80
2021/01/26 08:12:30;;;;;;;12.40;6.60;;;4.60;83.50;;;;;;4919359;29;20032;-79
2021/01/26 08:15:19;;;;;;;13.65;7.43;;;4.60;83.40;;;;;;4919585;29;20028;-79
2021/01/26 08:17:46;;;;;;;14.65;6.38;;;4.60;83.20;;;;;;4922096;29;20028;-80
2021/01/26 08:20:20;;;;;;;10.82;7.03;;;4.60;83.40;;;;;;4928742;29;20036;-83
2021/01/26 08:22:54;;;;;;;11.40;6.33;;;4.60;83.30;;;;;;4928927;29;20031;-81
2021/01/26 08:25:28;;;;;;;10.20;5.15;;;4.60;83.00;;;;;;4926896;29;20373;-80
2021/01/26 08:28:36;;;;;;;10.98;5.97;;;4.60;82.90;;;;;;4926262;29;20032;-79
2021/01/26 08:31:03;;;;;;;11.70;6.35;;;4.60;83.20;;;;;;4909479;29;20035;-81
2021/01/26 08:33:32;;;;;;;10.52;5.22;;;4.60;83.20;;;;;;4928080;29;20032;-80
2021/01/26 08:36:34;;;;;;;8.82;5.53;;;4.60;83.40;;;;;;4926478;29;20020;-80
2021/01/26 08:39:26;;;;;;;13.73;6.72;;;4.70;83.40;;;;;;4927724;29;20091;-80
2021/01/26 08:41:52;;;;;;;9.90;5.75;;;4.80;83.80;;;;;;4927862;29;20047;-81
2021/01/26 08:44:18;;;;;;;11.80;6.80;;;4.90;84.30;;;;;;4925587;29;20039;-80
2021/01/26 08:46:43;;;;;;;10.40;6.68;;;5.10;84.10;;;;;;4927817;29;20032;-81
2021/01/26 08:49:27;;;;;;;12.68;7.00;;;5.20;83.50;;;;;;4928106;29;20059;-80
2021/01/26 08:51:55;;;;;;;10.80;6.82;;;5.30;83.40;;;;;;4928279;29;20056;-79
2021/01/26 08:54:56;;;;;;;10.57;5.75;;;5.40;83.30;;;;;;4927410;29;20103;-81
2021/01/26 08:57:28;;;;;;;12.07;6.18;;;5.60;83.60;;;;;;4872924;29;20057;-80
2021/01/26 08:59:59;;;;;;;12.02;6.93;;;5.70;83.40;;;;;;4919148;29;20083;-79
2021/01/26 09:02:35;;;;;;;10.77;5.78;;;5.80;82.40;;;;;;4926828;29;20031;-80
2021/01/26 09:05:02;;;;;;;9.77;5.32;;;5.80;80.90;;;;;;4948943;29;20040;-81
2021/01/26 09:07:48;;;;;;;8.38;5.00;;;5.70;80.30;;;;;;4926133;29;20035;-80
2021/01/26 09:10:31;;;;;;;14.65;6.80;;;5.70;80.80;;;;;;4927609;29;20023;-80
2021/01/26 09:13:08;;;;;;;8.90;4.97;;;5.70;81.00;;;;;;4927455;29;20082;-80
2021/01/26 09:15:37;;;;;;;9.20;5.72;;;5.80;80.70;;;;;;4935438;29;20396;-80
2021/01/26 09:18:04;;;;;;;7.13;4.40;;;5.80;79.60;;;;;;4937416;29;20035;-80
2021/01/26 09:20:32;;;;;;;10.32;5.40;;;6.10;82.00;;;;;;4937231;29;20031;-80
2021/01/26 09:23:08;;;;;;;9.88;5.47;;;6.70;83.10;;;;;;4937269;29;20039;-80
2021/01/26 09:25:45;;;;;;;7.65;4.70;;;7.30;84.50;;;;;;4937258;29;20035;-81
2021/01/26 09:28:14;;;;;;;7.47;4.10;;;8.00;80.90;;;;;;4937064;29;20032;-81
2021/01/26 09:30:42;;;;;;;6.68;3.58;;;8.70;79.50;;;;;;4937167;29;20043;-80
2021/01/26 09:33:11;;;;;;;9.43;4.30;;;9.10;77.10;;;;;;4936818;29;20442;-80
2021/01/26 09:35:45;;;;;;;6.22;3.92;;;9.30;75.70;;;;;;4937027;29;20363;-80
2021/01/26 09:38:11;;;;;;;8.15;4.35;;;9.30;71.80;;;;;;4935194;29;20028;-80
2021/01/26 09:40:40;;;;;;;7.95;4.40;;;9.00;69.80;;;;;;4936734;29;20050;-79
2021/01/26 09:43:25;;;;;;;7.88;5.45;;;8.60;69.40;;;;;;4936643;29;20024;-81
2021/01/26 09:46:20;;;;;;;4.38;3.17;;;8.20;69.30;;;;;;4936705;29;20051;-80
2021/01/26 09:48:49;;;;;;;6.43;4.28;;;7.90;69.20;;;;;;4936736;29;20067;-80
2021/01/26 09:51:25;;;;;;;6.28;3.60;;;7.60;69.30;;;;;;4936280;29;20059;-80
2021/01/26 09:54:03;;;;;;;5.07;3.55;;;7.50;69.30;;;;;;4936984;29;20044;-80
2021/01/26 09:56:33;;;;;;;6.47;4.53;;;7.40;70.00;;;;;;4935881;29;20047;-80
2021/01/26 09:59:00;;;;;;;6.10;4.18;;;7.50;70.20;;;;;;4936020;29;20028;-80
2021/01/26 10:01:27;;;;;;;6.60;3.90;;;7.50;71.40;;;;;;4936444;29;20134;-81
2021/01/26 10:04:03;;;;;;;5.88;4.22;;;7.50;69.90;;;;;;4936100;29;20035;-78
2021/01/26 10:06:30;;;;;;;6.03;3.80;;;7.40;70.00;;;;;;4936409;29;20035;-79
2021/01/26 10:09:11;;;;;;;7.90;5.22;;;7.50;70.40;;;;;;4935574;29;20363;-80
2021/01/26 10:11:36;;;;;;;6.20;3.72;;;7.50;71.30;;;;;;4936694;29;20024;-80
2021/01/26 10:14:24;;;;;;;6.60;4.07;;;7.60;69.70;;;;;;4936425;29;20503;-79
2021/01/26 10:16:52;;;;;;;8.43;4.70;;;7.60;70.00;;;;;;4936822;29;20169;-81
2021/01/26 10:19:28;;;;;;;8.48;4.72;;;7.70;70.10;;;;;;4936507;29;20019;-81
2021/01/26 10:22:02;;;;;;;8.40;4.57;;;7.80;68.90;;;;;;4936166;29;20031;-81
2021/01/26 10:24:30;;;;;;;7.82;4.38;;;7.90;69.00;;;;;;4935961;29;20039;-81
2021/01/26 10:27:22;;;;;;;7.35;4.78;;;7.90;69.00;;;;;;4935971;29;20482;-81
2021/01/26 10:29:49;;;;;;;9.75;6.13;;;8.00;69.00;;;;;;4936641;29;20028;-79
2021/01/26 10:32:39;;;;;;;9.27;4.85;;;8.10;68.60;;;;;;4936446;29;20040;-79
2021/01/26 10:35:20;;;;;;;8.82;5.13;;;8.10;68.70;;;;;;4936514;29;20099;-82
2021/01/26 10:37:46;;;;;;;11.32;5.90;;;8.20;69.00;;;;;;4936177;29;20052;-80
2021/01/26 10:40:27;;;;;;;10.15;5.65;;;8.40;69.30;;;;;;4936100;29;20054;-81
2021/01/26 10:43:21;;;;;;;5.68;4.15;;;8.60;68.40;;;;;;4935921;29;20042;-80
2021/01/26 10:45:55;;;;;;;8.18;4.57;;;8.80;68.00;;;;;;4935792;29;20035;-81
2021/01/26 10:48:33;;;;;;;9.57;5.63;;;9.20;67.40;;;;;;4937454;29;20427;-81
2021/01/26 10:51:29;;;;;;;9.45;5.20;;;9.40;66.50;;;;;;4939894;29;20462;-80
2021/01/26 10:53:55;;;;;;;11.90;6.47;;;9.50;66.20;;;;;;4927774;29;20482;-79
2021/01/26 10:56:21;;;;;;;10.13;5.30;;;9.50;65.60;;;;;;4939573;29;20099;-80
2021/01/26 10:58:48;;;;;;;9.68;5.80;;;9.30;64.80;;;;;;4939851;29;20454;-80
2021/01/26 11:01:22;;;;;;;10.90;6.68;;;9.20;65.40;;;;;;4939975;29;20083;-80
2021/01/26 11:03:49;;;;;;;10.13;6.28;;;9.00;65.10;;;;;;4939524;29;20055;-80
2021/01/26 11:06:15;;;;;;;13.75;6.32;;;8.70;65.20;;;;;;4936359;29;20115;-79
2021/01/26 11:08:41;;;;;;;9.18;5.28;;;8.50;65.70;;;;;;4938378;29;20128;-80
2021/01/26 11:11:10;;;;;;;8.20;5.28;;;8.40;65.30;;;;;;4939167;29;20466;-80
2021/01/26 11:13:36;;;;;;;10.55;6.32;;;8.30;65.20;;;;;;4938865;29;20035;-80
2021/01/26 11:16:01;;;;;;;11.07;6.93;;;8.30;66.60;;;;;;4938389;29;20107;-80
2021/01/26 11:18:27;;;;;;;8.55;5.50;;;8.40;66.80;;;;;;4939060;29;20106;-80
2021/01/26 11:20:53;;;;;;;11.77;7.13;;;8.60;67.40;;;;;;4938845;29;20031;-82
2021/01/26 11:23:18;;;;;;;10.10;5.47;;;8.80;66.70;;;;;;4939685;29;20032;-81
2021/01/26 11:25:44;;;;;;;7.90;4.28;;;8.90;65.10;;;;;;4939418;29;20040;-79
2021/01/26 11:28:10;;;;;;;7.70;4.40;;;9.00;65.90;;;;;;4939948;29;20035;-90
2021/01/26 11:30:35;;;;;;;8.75;6.00;;;9.10;65.80;;;;;;4940711;29;20425;-90
2021/01/26 11:33:04;;;;;;;9.48;5.97;;;9.20;64.70;;;;;;4939739;29;20042;-90
2021/01/26 11:35:30;;;;;;;7.90;4.35;;;9.10;64.70;;;;;;4939228;29;20032;-93
2021/01/26 11:37:56;;;;;;;7.78;4.97;;;9.00;64.30;;;;;;4940242;29;20027;-93
2021/01/26 11:40:23;;;;;;;7.57;4.40;;;8.90;64.30;;;;;;4939173;29;20036;-91
2021/01/26 11:42:49;;;;;;;7.80;4.97;;;8.70;64.10;;;;;;4940796;29;20035;-91
2021/01/26 11:45:24;;;;;;;9.43;4.60;;;8.50;63.60;;;;;;4940763;29;20031;-90
2021/01/26 11:47:50;;;;;;;8.68;4.40;;;8.30;64.30;;;;;;4941813;29;20100;-90
2021/01/26 11:50:17;;;;;;;6.20;4.20;;;8.10;64.50;;;;;;4939790;29;20071;-88
2021/01/26 11:52:42;;;;;;;8.57;4.82;;;8.00;65.10;;;;;;4940373;29;20063;-93
2021/01/26 11:55:11;;;;;;;8.68;4.57;;;7.80;65.10;;;;;;4941858;29;20042;-92
2021/01/26 11:57:37;;;;;;;10.52;6.07;;;7.60;65.20;;;;;;4940077;29;20359;-92
2021/01/26 12:00:06;;;;;;;6.80;3.97;;;7.40;65.20;;;;;;4939555;29;20035;-90
2021/01/26 12:02:32;;;;;;;8.23;4.80;;;7.30;65.50;;;;;;4940006;29;20509;-91
2021/01/26 12:04:58;;;;;;;8.25;4.78;;;7.20;66.20;;;;;;4939157;29;20028;-90
2021/01/26 12:07:24;;;;;;;7.05;5.15;;;7.10;66.60;;;;;;4939528;29;20397;-92
2021/01/26 12:09:49;;;;;;;6.25;4.35;;;7.00;66.60;;;;;;4939873;29;20028;-92
2021/01/26 12:12:15;;;;;;;7.70;4.53;;;6.90;66.70;;;;;;4939478;29;20071;-92
2021/01/26 12:14:41;;;;;;;6.90;4.13;;;6.80;67.00;;;;;;4938999;29;20027;-90
2021/01/26 12:17:06;;;;;;;3.90;2.92;;;6.80;67.60;;;;;;4939625;29;20038;-89
2021/01/26 12:19:32;;;;;;;5.97;4.00;;;6.80;67.10;;;;;;4940258;29;20039;-91
2021/01/26 12:22:00;;;;;;;5.47;3.25;;;6.70;67.20;;;;;;4940441;29;20373;-91
2021/01/26 12:24:26;;;;;;;4.78;3.42;;;6.60;66.90;;;;;;4939206;29;20545;-90
2021/01/26 12:26:53;;;;;;;6.68;4.03;;;6.60;66.90;;;;;;4935555;29;20032;-91
2021/01/26 12:29:19;;;;;;;5.85;3.88;;;6.50;67.20;;;;;;4920642;29;20039;-91
2021/01/26 12:31:44;;;;;;;7.80;3.92;;;6.50;67.50;;;;;;4920524;29;20095;-92
2021/01/26 12:34:10;;;;;;;5.25;3.78;;;6.40;67.40;;;;;;4919005;29;20028;-90
2021/01/26 12:36:36;;;;;;;7.05;4.43;;;6.40;67.60;;;;;;4920026;29;20051;-93
2021/01/26 12:39:03;;;;;;;7.50;4.25;;;6.40;67.80;;;;;;4919705;29;20032;-90
2021/01/26 12:41:28;;;;;;;8.77;5.05;;;6.40;67.50;;;;;;4918812;29;20036;-88
2021/01/26 12:43:54;;;;;;;8.07;4.68;;;6.40;67.90;;;;;;4918172;29;20064;-90
2021/01/26 12:46:20;;;;;;;7.95;4.25;;;6.30;67.60;;;;;;4930452;29;20032;-91
2021/01/26 12:48:46;;;;;;;10.05;4.40;;;6.30;67.80;;;;;;4937612;29;20039;-90
2021/01/26 12:51:11;;;;;;;5.28;3.50;;;6.30;68.30;;;;;;4938288;29;20028;-88
2021/01/26 12:53:37;;;;;;;6.07;4.07;;;6.30;68.00;;;;;;4939826;29;20031;-90
2021/01/26 12:56:03;;;;;;;7.30;4.43;;;6.30;68.40;;;;;;4937848;29;20258;-89
2021/01/26 12:58:29;;;;;;;7.45;4.40;;;6.30;69.00;;;;;;4937652;29;20039;-90
2021/01/26 13:00:54;;;;;;;8.45;4.15;;;6.30;69.30;;;;;;4939411;29;20385;-90
2021/01/26 13:03:20;;;;;;;8.10;4.20;;;6.40;69.20;;;;;;4937472;29;20074;-91
2021/01/26 13:05:46;;;;;;;7.35;4.05;;;6.30;69.00;;;;;;4937653;29;20039;-90
2021/01/26 13:08:11;;;;;;;8.05;5.18;;;6.30;69.20;;;;;;4938225;29;20062;-89
2021/01/26 13:10:39;;;;;;;7.07;4.25;;;6.30;69.60;;;;;;4937399;29;20151;-88
2021/01/26 13:13:05;;;;;;;6.53;4.25;;;6.30;69.60;;;;;;4936926;29;20032;-90
2021/01/26 13:15:30;;;;;;;7.78;4.88;;;6.30;69.30;;;;;;4939084;29;20377;-90
2021/01/26 13:17:56;;;;;;;13.38;6.63;;;6.20;69.00;;;;;;4938115;29;20031;-90
2021/01/26 13:20:22;;;;;;;7.68;4.45;;;6.20;69.50;;;;;;4936374;29;20024;-91
2021/01/26 13:22:48;;;;;;;7.07;4.65;;;6.10;69.50;;;;;;4937196;29;20028;-90
2021/01/26 13:25:18;;;;;;;7.30;4.70;;;6.10;69.50;;;;;;4938350;29;20489;-92
2021/01/26 13:27:44;;;;;;;6.88;4.65;;;6.10;69.50;;;;;;4937226;29;20059;-89